createdAt,value
2022-08-16T00:00:25.915Z,78.31
2022-08-16T00:01:26.609Z,78.21
2022-08-16T00:02:25.943Z,78.21
2022-08-16T00:03:25.873Z,78.11
2022-08-16T00:04:25.867Z,78.11
2022-08-16T00:05:25.840Z,78.11
2022-08-16T00:06:25.837Z,78.01
2022-08-16T00:07:25.828Z,78.21
2022-08-16T00:08:36.588Z,78.51
2022-08-16T00:09:25.809Z,78.61
2022-08-16T00:10:25.781Z,78.85
2022-08-16T00:11:25.768Z,79.05
2022-08-16T00:12:26.622Z,78.96
2022-08-16T00:13:25.759Z,79.05
2022-08-16T00:14:29.198Z,79.05
2022-08-16T00:15:25.710Z,78.96
2022-08-16T00:17:01.262Z,78.96
2022-08-16T00:17:25.689Z,78.96
2022-08-16T00:18:29.786Z,78.96
2022-08-16T00:19:28.444Z,78.85
2022-08-16T00:20:25.669Z,78.96
2022-08-16T00:21:25.649Z,78.85
2022-08-16T00:22:25.642Z,78.85
2022-08-16T00:23:34.919Z,78.81
2022-08-16T00:24:32.683Z,78.71
2022-08-16T00:26:36.516Z,100.00
2022-08-16T00:26:48.848Z,100.00
2022-08-16T00:27:25.594Z,78.41
2022-08-16T00:28:28.551Z,78.41
2022-08-16T00:29:25.536Z,78.31
2022-08-16T00:30:28.699Z,78.21
2022-08-16T00:31:25.509Z,78.21
2022-08-16T00:32:25.514Z,78.11
2022-08-16T00:33:25.484Z,77.97
2022-08-16T00:34:44.457Z,77.67
2022-08-16T00:35:25.459Z,77.37
2022-08-16T00:36:25.453Z,77.17
2022-08-16T00:37:57.220Z,76.97
2022-08-16T00:38:40.653Z,77.07
2022-08-16T00:39:25.434Z,77.27
2022-08-16T00:40:34.290Z,77.40
2022-08-16T00:41:25.383Z,77.61
2022-08-16T00:42:29.632Z,77.81
2022-08-16T00:43:25.361Z,78.25
2022-08-16T00:44:31.775Z,78.45
2022-08-16T00:45:25.389Z,78.55
2022-08-16T00:46:33.826Z,78.55
2022-08-16T00:47:25.307Z,100.00
2022-08-16T00:48:30.506Z,78.35
2022-08-16T00:49:25.289Z,78.35
2022-08-16T00:50:36.073Z,78.25
2022-08-16T00:51:25.272Z,78.25
2022-08-16T00:52:30.298Z,78.11
2022-08-16T00:53:25.241Z,78.25
2022-08-16T00:54:25.225Z,78.25
2022-08-16T00:55:25.209Z,78.25
2022-08-16T00:56:58.456Z,77.91
2022-08-16T00:57:25.183Z,77.81
2022-08-16T00:58:34.565Z,77.81
2022-08-16T00:59:25.154Z,77.61
2022-08-16T01:00:25.150Z,77.70
2022-08-16T01:01:25.176Z,77.61
2022-08-16T01:02:31.169Z,77.70
2022-08-16T01:03:30.069Z,77.81
2022-08-16T01:04:30.294Z,77.81
2022-08-16T01:05:25.072Z,77.61
2022-08-16T01:06:39.822Z,77.50
2022-08-16T01:07:25.050Z,77.50
2022-08-16T01:08:35.489Z,77.61
2022-08-16T01:09:25.030Z,77.95
2022-08-16T01:10:32.015Z,78.15
2022-08-16T01:11:25.000Z,78.35
2022-08-16T01:12:26.442Z,78.45
2022-08-16T01:13:26.696Z,78.65
2022-08-16T01:14:29.852Z,78.65
2022-08-16T01:15:24.952Z,78.45
2022-08-16T01:16:25.760Z,78.35
2022-08-16T01:17:24.921Z,78.45
2022-08-16T01:18:39.895Z,78.45
2022-08-16T01:19:24.903Z,77.95
2022-08-16T01:20:30.453Z,77.95
2022-08-16T01:21:24.864Z,77.84
2022-08-16T01:22:47.913Z,77.75
2022-08-16T01:23:24.836Z,77.75
2022-08-16T01:24:52.292Z,77.64
2022-08-16T01:25:34.011Z,100.00
2022-08-16T01:26:34.082Z,100.00
2022-08-16T01:27:24.785Z,77.31
2022-08-16T01:28:24.768Z,77.20
2022-08-16T01:29:56.983Z,77.20
2022-08-16T01:30:26.450Z,77.20
2022-08-16T01:31:29.776Z,77.11
2022-08-16T01:32:33.386Z,77.20
2022-08-16T01:33:24.705Z,77.31
2022-08-16T01:34:26.508Z,77.11
2022-08-16T01:35:24.674Z,77.00
2022-08-16T01:36:26.536Z,76.90
2022-08-16T01:37:24.660Z,77.00
2022-08-16T01:38:25.689Z,77.00
2022-08-16T01:39:24.667Z,77.04
2022-08-16T01:40:24.611Z,77.14
2022-08-16T01:41:24.593Z,77.24
2022-08-16T01:42:24.584Z,77.14
2022-08-16T01:43:24.570Z,77.24
2022-08-16T01:44:24.564Z,77.24
2022-08-16T01:45:24.553Z,77.14
2022-08-16T01:46:29.619Z,77.00
2022-08-16T01:47:24.522Z,76.90
2022-08-16T01:48:24.504Z,76.80
2022-08-16T01:49:24.496Z,76.70
2022-08-16T01:50:43.022Z,76.50
2022-08-16T01:51:24.470Z,76.40
2022-08-16T01:52:29.424Z,76.40
2022-08-16T01:53:24.444Z,76.30
2022-08-16T01:54:30.644Z,76.30
2022-08-16T01:55:24.443Z,76.30
2022-08-16T01:56:25.410Z,76.30
2022-08-16T01:57:24.708Z,76.30
2022-08-16T01:58:24.375Z,76.40
2022-08-16T01:59:24.366Z,76.50
2022-08-16T02:00:29.230Z,76.60
2022-08-16T02:01:26.493Z,76.60
2022-08-16T02:02:27.340Z,76.60
2022-08-16T02:03:26.795Z,76.40
2022-08-16T02:04:48.063Z,76.30
2022-08-16T02:05:24.308Z,75.90
2022-08-16T02:06:34.667Z,75.66
2022-08-16T02:07:24.505Z,75.46
2022-08-16T02:08:33.239Z,75.35
2022-08-16T02:09:24.238Z,75.35
2022-08-16T02:10:24.305Z,75.35
2022-08-16T02:11:24.211Z,75.70
2022-08-16T02:12:45.839Z,75.79
2022-08-16T02:13:27.831Z,75.79
2022-08-16T02:14:26.296Z,75.79
2022-08-16T02:15:24.965Z,75.79
2022-08-16T02:16:24.154Z,75.90
2022-08-16T02:17:24.135Z,75.90
2022-08-16T02:18:24.130Z,75.99
2022-08-16T02:19:24.108Z,75.99
2022-08-16T02:20:26.226Z,76.20
2022-08-16T02:21:31.336Z,76.30
2022-08-16T02:22:35.126Z,76.40
2022-08-16T02:23:24.082Z,76.40
2022-08-16T02:24:32.615Z,76.50
2022-08-16T02:25:24.038Z,76.50
2022-08-16T02:26:24.022Z,76.50
2022-08-16T02:27:24.000Z,76.60
2022-08-16T02:28:24.000Z,76.60
2022-08-16T02:29:23.976Z,76.50
2022-08-16T02:30:37.386Z,76.40
2022-08-16T02:32:02.737Z,76.40
2022-08-16T02:32:50.576Z,76.50
2022-08-16T02:33:25.017Z,76.60
2022-08-16T02:34:34.759Z,76.64
2022-08-16T02:35:23.931Z,76.74
2022-08-16T02:36:47.858Z,76.84
2022-08-16T02:37:23.880Z,76.80
2022-08-16T02:38:23.995Z,76.84
2022-08-16T02:39:23.929Z,76.70
2022-08-16T02:40:23.846Z,76.70
2022-08-16T02:41:23.843Z,76.70
2022-08-16T02:42:23.811Z,76.70
2022-08-16T02:43:29.812Z,76.74
2022-08-16T02:44:23.791Z,76.84
2022-08-16T02:45:24.664Z,76.94
2022-08-16T02:46:29.923Z,100.00
2022-08-16T02:47:25.400Z,77.04
2022-08-16T02:48:29.693Z,77.04
2022-08-16T02:49:58.542Z,77.14
2022-08-16T02:51:11.016Z,77.24
2022-08-16T02:51:23.713Z,77.24
2022-08-16T02:52:24.567Z,77.34
2022-08-16T02:53:23.815Z,77.58
2022-08-16T02:54:23.877Z,77.78
2022-08-16T02:55:41.201Z,78.08
2022-08-16T02:56:23.659Z,78.28
2022-08-16T02:57:23.623Z,78.49
2022-08-16T02:58:25.094Z,78.49
2022-08-16T02:59:23.594Z,78.63
2022-08-16T03:00:33.572Z,78.72
2022-08-16T03:01:24.031Z,78.83
2022-08-16T03:02:31.799Z,78.92
2022-08-16T03:03:23.553Z,78.92
2022-08-16T03:04:46.250Z,79.03
2022-08-16T03:05:23.522Z,79.03
2022-08-16T03:06:41.421Z,79.03
2022-08-16T03:07:27.317Z,79.13
2022-08-16T03:08:50.267Z,79.27
2022-08-16T03:09:23.469Z,79.27
2022-08-16T03:10:23.457Z,79.47
2022-08-16T03:11:23.445Z,79.47
2022-08-16T03:12:30.280Z,79.57
2022-08-16T03:13:23.416Z,79.36
2022-08-16T03:14:24.753Z,79.47
2022-08-16T03:15:24.468Z,79.57
2022-08-16T03:16:32.861Z,79.47
2022-08-16T03:17:23.378Z,79.57
2022-08-16T03:18:34.622Z,79.47
2022-08-16T03:19:23.355Z,79.57
2022-08-16T03:20:32.126Z,79.57
2022-08-16T03:21:23.313Z,79.50
2022-08-16T03:22:29.198Z,79.41
2022-08-16T03:23:23.287Z,79.41
2022-08-16T03:24:29.079Z,79.71
2022-08-16T03:25:23.279Z,79.71
2022-08-16T03:26:23.246Z,79.81
2022-08-16T03:27:23.231Z,79.71
2022-08-16T03:28:23.208Z,79.81
2022-08-16T03:29:23.203Z,79.81
2022-08-16T03:30:23.190Z,79.61
2022-08-16T03:31:23.181Z,79.71
2022-08-16T03:32:23.157Z,79.64
2022-08-16T03:33:23.149Z,79.64
2022-08-16T03:34:23.129Z,79.74
2022-08-16T03:35:23.128Z,79.74
2022-08-16T03:36:30.693Z,79.74
2022-08-16T03:37:23.102Z,79.64
2022-08-16T03:38:32.486Z,79.74
2022-08-16T03:39:23.185Z,79.74
2022-08-16T03:40:31.499Z,79.74
2022-08-16T03:41:25.231Z,79.74
2022-08-16T03:42:23.187Z,79.85
2022-08-16T03:43:23.015Z,79.74
2022-08-16T03:44:44.480Z,79.64
2022-08-16T03:45:27.210Z,79.64
2022-08-16T03:46:44.474Z,79.64
2022-08-16T03:47:22.974Z,79.54
2022-08-16T03:48:37.038Z,79.64
2022-08-16T03:49:22.952Z,79.74
2022-08-16T03:50:26.200Z,79.85
2022-08-16T03:51:25.407Z,79.94
2022-08-16T03:52:23.415Z,79.94
2022-08-16T03:53:22.894Z,79.94
2022-08-16T03:54:23.355Z,79.94
2022-08-16T03:55:22.872Z,100.00
2022-08-16T03:56:22.860Z,79.94
2022-08-16T03:57:22.836Z,80.05
2022-08-16T03:58:22.812Z,80.25
2022-08-16T03:59:22.812Z,80.35
2022-08-16T04:00:43.454Z,80.55
2022-08-16T04:01:22.872Z,80.76
2022-08-16T04:02:31.251Z,80.96
2022-08-16T04:03:22.767Z,81.05
2022-08-16T04:04:32.662Z,81.16
2022-08-16T04:05:22.759Z,81.56
2022-08-16T04:06:22.708Z,81.67
2022-08-16T04:07:22.706Z,81.67
2022-08-16T04:08:24.484Z,81.76
2022-08-16T04:09:22.681Z,81.87
2022-08-16T04:10:37.042Z,82.17
2022-08-16T04:11:23.718Z,100.00
2022-08-16T04:12:53.626Z,82.57
2022-08-16T04:13:59.077Z,100.00
2022-08-16T04:14:31.064Z,82.78
2022-08-16T04:15:22.615Z,82.87
2022-08-16T04:16:27.802Z,82.87
2022-08-16T04:17:24.287Z,82.98
2022-08-16T04:18:22.557Z,82.98
2022-08-16T04:19:22.540Z,83.18
2022-08-16T04:20:29.440Z,83.28
2022-08-16T04:21:29.468Z,83.28
2022-08-16T04:22:22.514Z,100.00
2022-08-16T04:23:22.503Z,83.38
2022-08-16T04:24:22.467Z,83.48
2022-08-16T04:25:22.716Z,83.38
2022-08-16T04:26:22.458Z,83.52
2022-08-16T04:27:24.363Z,83.52
2022-08-16T04:28:52.389Z,83.72
2022-08-16T04:29:24.951Z,83.92
2022-08-16T04:30:32.403Z,84.12
2022-08-16T04:31:22.400Z,84.23
2022-08-16T04:32:22.377Z,84.12
2022-08-16T04:33:27.106Z,84.12
2022-08-16T04:34:22.344Z,84.12
2022-08-16T04:35:22.720Z,84.23
2022-08-16T04:36:22.318Z,84.33
2022-08-16T04:37:22.305Z,84.43
2022-08-16T04:38:22.295Z,84.73
2022-08-16T04:39:23.831Z,84.77
2022-08-16T04:40:25.172Z,84.77
2022-08-16T04:41:32.682Z,84.87
2022-08-16T04:42:26.527Z,84.87
2022-08-16T04:43:22.243Z,85.08
2022-08-16T04:44:32.910Z,85.17
2022-08-16T04:45:36.340Z,85.17
2022-08-16T04:47:02.575Z,85.17
2022-08-16T04:47:24.500Z,85.28
2022-08-16T04:48:28.606Z,85.14
2022-08-16T04:49:22.154Z,84.93
2022-08-16T04:50:22.127Z,84.83
2022-08-16T04:51:22.135Z,84.97
2022-08-16T04:52:34.190Z,85.17
2022-08-16T04:53:22.106Z,85.28
2022-08-16T04:54:22.074Z,85.38
2022-08-16T04:55:22.067Z,85.48
2022-08-16T04:56:22.059Z,85.48
2022-08-16T04:57:22.069Z,85.68
2022-08-16T04:58:45.158Z,85.68
2022-08-16T04:59:22.032Z,85.68
2022-08-16T05:00:32.551Z,85.44
2022-08-16T05:01:22.052Z,85.34
2022-08-16T05:02:41.649Z,85.14
2022-08-16T05:03:22.045Z,85.03
2022-08-16T05:04:21.939Z,84.73
2022-08-16T05:05:21.952Z,84.73
2022-08-16T05:06:21.914Z,84.73
2022-08-16T05:07:21.911Z,84.53
2022-08-16T05:08:28.459Z,84.53
2022-08-16T05:09:22.987Z,84.63
2022-08-16T05:10:22.784Z,84.83
2022-08-16T05:11:21.848Z,84.83
2022-08-16T05:12:22.060Z,84.73
2022-08-16T05:13:21.958Z,84.63
2022-08-16T05:14:45.582Z,84.63
2022-08-16T05:15:21.810Z,84.29
2022-08-16T05:16:23.136Z,84.09
2022-08-16T05:17:24.605Z,100.00
2022-08-16T05:18:26.888Z,83.98
2022-08-16T05:19:21.767Z,100.00
2022-08-16T05:20:39.164Z,84.09
2022-08-16T05:21:22.221Z,83.98
2022-08-16T05:22:21.717Z,83.88
2022-08-16T05:23:21.701Z,83.78
2022-08-16T05:24:22.212Z,83.04
2022-08-16T05:25:21.661Z,100.00
2022-08-16T05:26:21.697Z,83.04
2022-08-16T05:27:21.645Z,83.04
2022-08-16T05:28:21.635Z,82.93
2022-08-16T05:29:21.618Z,82.64
2022-08-16T05:30:36.876Z,82.23
2022-08-16T05:31:21.606Z,82.03
2022-08-16T05:32:32.900Z,82.03
2022-08-16T05:33:21.576Z,82.13
2022-08-16T05:34:22.550Z,82.23
2022-08-16T05:35:21.536Z,82.33
2022-08-16T05:36:21.523Z,82.53
2022-08-16T05:37:21.509Z,82.64
2022-08-16T05:38:33.080Z,82.43
2022-08-16T05:39:22.351Z,82.43
2022-08-16T05:40:21.464Z,82.43
2022-08-16T05:41:21.456Z,82.33
2022-08-16T05:42:21.475Z,82.13
2022-08-16T05:43:21.429Z,82.03
2022-08-16T05:44:22.940Z,81.93
2022-08-16T05:45:23.171Z,81.93
2022-08-16T05:46:28.727Z,82.03
2022-08-16T05:47:21.388Z,82.03
2022-08-16T05:48:21.377Z,81.52
2022-08-16T05:49:22.237Z,81.22
2022-08-16T05:50:21.395Z,81.22
2022-08-16T05:51:35.299Z,81.32
2022-08-16T05:52:21.341Z,81.22
2022-08-16T05:53:22.251Z,80.68
2022-08-16T05:54:25.066Z,80.98
2022-08-16T05:55:21.268Z,80.68
2022-08-16T05:56:21.248Z,80.58
2022-08-16T05:57:21.247Z,80.27
2022-08-16T05:58:33.210Z,80.18
2022-08-16T05:59:22.117Z,79.67
2022-08-16T06:00:22.582Z,79.36
2022-08-16T06:01:21.664Z,79.06
2022-08-16T06:02:21.183Z,79.06
2022-08-16T06:03:21.173Z,79.27
2022-08-16T06:04:36.264Z,79.13
2022-08-16T06:05:21.143Z,78.72
2022-08-16T06:06:28.210Z,78.52
2022-08-16T06:07:26.230Z,78.52
2022-08-16T06:08:31.764Z,78.32
2022-08-16T06:09:21.093Z,78.02
2022-08-16T06:10:32.055Z,78.12
2022-08-16T06:11:21.083Z,77.58
2022-08-16T06:12:26.819Z,77.78
2022-08-16T06:13:21.034Z,100.00
2022-08-16T06:14:21.014Z,77.17
2022-08-16T06:15:21.013Z,77.28
2022-08-16T06:16:20.989Z,77.28
2022-08-16T06:17:21.613Z,77.08
2022-08-16T06:18:20.962Z,100.00
2022-08-16T06:19:20.999Z,76.64
2022-08-16T06:20:24.024Z,76.34
2022-08-16T06:21:23.654Z,76.34
2022-08-16T06:22:37.351Z,76.43
2022-08-16T06:23:21.087Z,76.10
2022-08-16T06:24:54.410Z,75.99
2022-08-16T06:25:36.369Z,75.59
2022-08-16T06:26:20.885Z,74.55
2022-08-16T06:27:20.869Z,74.05
2022-08-16T06:28:36.052Z,73.75
2022-08-16T06:29:20.826Z,73.61
2022-08-16T06:30:20.821Z,72.91
2022-08-16T06:31:25.013Z,72.00
2022-08-16T06:32:27.285Z,71.87
2022-08-16T06:33:22.773Z,71.97
2022-08-16T06:34:54.217Z,71.87
2022-08-16T06:35:20.752Z,71.67
2022-08-16T06:36:21.024Z,71.47
2022-08-16T06:37:20.724Z,71.26
2022-08-16T06:38:32.444Z,70.86
2022-08-16T06:39:20.706Z,70.73
2022-08-16T06:40:20.808Z,70.32
2022-08-16T06:41:20.672Z,69.12
2022-08-16T06:42:20.681Z,100.00
2022-08-16T06:43:20.648Z,69.02
2022-08-16T06:44:21.585Z,69.02
2022-08-16T06:45:20.624Z,69.19
2022-08-16T06:46:20.595Z,69.49
2022-08-16T06:47:20.593Z,100.00
2022-08-16T06:48:20.568Z,67.98
2022-08-16T06:49:20.572Z,67.58
2022-08-16T06:50:28.843Z,67.68
2022-08-16T06:51:20.536Z,67.95
2022-08-16T06:52:58.237Z,67.65
2022-08-16T06:53:24.301Z,67.85
2022-08-16T06:54:20.498Z,67.75
2022-08-16T06:55:20.488Z,67.61
2022-08-16T06:56:23.474Z,67.11
2022-08-16T06:57:20.470Z,100.00
2022-08-16T06:58:22.782Z,66.18
2022-08-16T06:59:20.431Z,66.28
2022-08-16T07:00:24.598Z,66.38
2022-08-16T07:01:43.105Z,66.38
2022-08-16T07:02:33.313Z,66.38
2022-08-16T07:03:26.729Z,66.48
2022-08-16T07:04:33.401Z,66.48
2022-08-16T07:05:20.351Z,65.38
2022-08-16T07:06:21.819Z,65.28
2022-08-16T07:07:20.323Z,64.98
2022-08-16T07:08:20.297Z,65.15
2022-08-16T07:09:20.301Z,64.95
2022-08-16T07:10:20.275Z,64.75
2022-08-16T07:11:20.267Z,64.34
2022-08-16T07:12:20.326Z,64.25
2022-08-16T07:13:43.972Z,64.54
2022-08-16T07:14:23.760Z,64.54
2022-08-16T07:15:20.213Z,100.00
2022-08-16T07:16:20.437Z,64.45
2022-08-16T07:17:20.178Z,64.45
2022-08-16T07:18:20.199Z,64.65
2022-08-16T07:19:20.152Z,64.65
2022-08-16T07:20:35.415Z,64.62
2022-08-16T07:21:20.133Z,63.42
2022-08-16T07:22:39.023Z,62.92
2022-08-16T07:23:20.119Z,63.31
2022-08-16T07:24:30.565Z,63.61
2022-08-16T07:25:20.087Z,63.81
2022-08-16T07:26:24.763Z,63.61
2022-08-16T07:27:20.114Z,100.00
2022-08-16T07:28:20.862Z,100.00
2022-08-16T07:29:20.023Z,62.48
2022-08-16T07:30:45.630Z,62.58
2022-08-16T07:31:20.001Z,62.68
2022-08-16T07:32:19.995Z,62.58
2022-08-16T07:33:52.842Z,62.48
2022-08-16T07:34:19.965Z,61.98
2022-08-16T07:35:20.038Z,62.18
2022-08-16T07:36:22.086Z,62.28
2022-08-16T07:37:23.015Z,61.98
2022-08-16T07:38:20.255Z,61.88
2022-08-16T07:39:19.902Z,61.58
2022-08-16T07:40:31.852Z,61.48
2022-08-16T07:41:19.874Z,61.38
2022-08-16T07:42:20.114Z,61.38
2022-08-16T07:43:19.855Z,61.28
2022-08-16T07:44:19.855Z,61.18
2022-08-16T07:45:19.853Z,60.38
2022-08-16T07:46:38.023Z,60.28
2022-08-16T07:47:19.799Z,60.08
2022-08-16T07:48:19.782Z,59.68
2022-08-16T07:49:19.764Z,59.08
2022-08-16T07:50:57.384Z,58.98
2022-08-16T07:51:19.755Z,59.58
2022-08-16T07:52:20.363Z,59.48
2022-08-16T07:53:19.740Z,59.78
2022-08-16T07:54:21.258Z,59.88
2022-08-16T07:55:19.688Z,59.98
2022-08-16T07:56:19.693Z,60.28
2022-08-16T07:57:19.672Z,60.25
2022-08-16T07:58:33.673Z,60.15
2022-08-16T07:59:19.633Z,100.00
2022-08-16T08:00:19.636Z,60.35
2022-08-16T08:01:19.628Z,60.15
2022-08-16T08:02:20.208Z,60.35
2022-08-16T08:03:19.604Z,59.95
2022-08-16T08:04:19.570Z,59.05
2022-08-16T08:05:29.713Z,59.32
2022-08-16T08:06:19.554Z,59.52
2022-08-16T08:07:19.543Z,100.00
2022-08-16T08:08:50.510Z,100.00
2022-08-16T08:09:19.510Z,100.00
2022-08-16T08:10:29.556Z,100.00
2022-08-16T08:11:19.485Z,58.42
2022-08-16T08:12:31.308Z,58.62
2022-08-16T08:13:19.464Z,58.82
2022-08-16T08:14:29.779Z,58.72
2022-08-16T08:15:24.993Z,58.62
2022-08-16T08:16:19.738Z,58.02
2022-08-16T08:17:19.397Z,58.02
2022-08-16T08:18:30.095Z,57.59
2022-08-16T08:19:19.381Z,56.99
2022-08-16T08:20:26.271Z,56.89
2022-08-16T08:21:19.364Z,56.29
2022-08-16T08:22:22.074Z,56.79
2022-08-16T08:23:19.325Z,56.96
2022-08-16T08:24:19.317Z,56.57
2022-08-16T08:25:19.294Z,57.17
2022-08-16T08:26:19.278Z,57.57
2022-08-16T08:27:22.416Z,57.67
2022-08-16T08:28:20.075Z,56.87
2022-08-16T08:29:22.958Z,56.57
2022-08-16T08:30:51.967Z,100.00
2022-08-16T08:31:19.223Z,57.07
2022-08-16T08:32:59.655Z,56.27
2022-08-16T08:33:19.197Z,56.37
2022-08-16T08:34:19.176Z,55.84
2022-08-16T08:35:19.168Z,56.04
2022-08-16T08:36:22.039Z,55.84
2022-08-16T08:37:19.132Z,55.34
2022-08-16T08:38:45.944Z,55.44
2022-08-16T08:39:20.904Z,55.34
2022-08-16T08:40:19.213Z,55.14
2022-08-16T08:41:20.929Z,55.14
2022-08-16T08:42:26.629Z,54.64
2022-08-16T08:43:19.066Z,54.34
2022-08-16T08:44:28.509Z,54.22
2022-08-16T08:45:43.062Z,55.02
2022-08-16T08:46:21.344Z,53.31
2022-08-16T08:47:19.001Z,53.72
2022-08-16T08:48:34.589Z,54.61
2022-08-16T08:49:18.979Z,54.61
2022-08-16T08:50:32.024Z,55.11
2022-08-16T08:51:18.956Z,53.61
2022-08-16T08:52:34.965Z,53.72
2022-08-16T08:53:18.923Z,53.72
2022-08-16T08:54:20.678Z,100.00
2022-08-16T08:55:18.898Z,53.59
2022-08-16T08:56:23.656Z,53.79
2022-08-16T08:57:18.881Z,53.99
2022-08-16T08:58:18.856Z,53.19
2022-08-16T08:59:20.524Z,53.29
2022-08-16T09:00:21.413Z,53.59
2022-08-16T09:01:18.832Z,53.49
2022-08-16T09:02:19.541Z,53.49
2022-08-16T09:03:18.786Z,53.79
2022-08-16T09:04:18.845Z,53.99
2022-08-16T09:05:18.788Z,54.29
2022-08-16T09:06:18.751Z,54.59
2022-08-16T09:07:18.933Z,52.89
2022-08-16T09:08:18.734Z,52.97
2022-08-16T09:09:18.720Z,53.27
2022-08-16T09:10:20.918Z,53.17
2022-08-16T09:11:18.685Z,53.27
2022-08-16T09:12:31.194Z,53.27
2022-08-16T09:13:18.676Z,53.06
2022-08-16T09:14:24.153Z,53.17
2022-08-16T09:15:21.674Z,100.00
2022-08-16T09:17:02.417Z,52.57
2022-08-16T09:17:38.409Z,52.37
2022-08-16T09:18:24.865Z,52.97
2022-08-16T09:19:18.593Z,53.06
2022-08-16T09:20:18.628Z,53.17
2022-08-16T09:21:18.561Z,52.87
2022-08-16T09:22:19.983Z,53.44
2022-08-16T09:23:18.622Z,53.54
2022-08-16T09:24:51.530Z,53.74
2022-08-16T09:25:23.046Z,53.34
2022-08-16T09:26:44.116Z,53.34
2022-08-16T09:27:18.491Z,53.34
2022-08-16T09:29:15.638Z,52.04
2022-08-16T09:29:44.371Z,52.44
2022-08-16T09:30:33.342Z,52.04
2022-08-16T09:31:18.433Z,52.42
2022-08-16T09:32:28.895Z,52.81
2022-08-16T09:33:18.512Z,52.32
2022-08-16T09:34:19.167Z,52.92
2022-08-16T09:35:18.389Z,52.51
2022-08-16T09:36:32.614Z,52.51
2022-08-16T09:37:19.842Z,52.62
2022-08-16T09:38:31.463Z,52.72
2022-08-16T09:39:18.322Z,52.22
2022-08-16T09:40:33.312Z,52.92
2022-08-16T09:41:18.296Z,51.29
2022-08-16T09:42:19.016Z,50.60
2022-08-16T09:43:53.081Z,50.70
2022-08-16T09:45:12.704Z,50.08
2022-08-16T09:45:22.253Z,50.48
2022-08-16T09:46:33.318Z,50.98
2022-08-16T09:47:18.216Z,49.98
2022-08-16T09:48:44.100Z,50.48
2022-08-16T09:49:20.041Z,50.38
2022-08-16T09:50:22.808Z,50.35
2022-08-16T09:51:18.173Z,100.00
2022-08-16T09:52:18.160Z,49.16
2022-08-16T09:53:18.145Z,49.53
2022-08-16T09:54:20.942Z,49.63
2022-08-16T09:55:18.120Z,49.73
2022-08-16T09:56:18.130Z,49.23
2022-08-16T09:57:18.101Z,49.23
2022-08-16T09:58:39.060Z,48.32
2022-08-16T09:59:18.072Z,48.02
2022-08-16T10:00:44.324Z,48.81
2022-08-16T10:01:18.051Z,48.41
2022-08-16T10:02:25.883Z,48.61
2022-08-16T10:03:18.045Z,48.71
2022-08-16T10:04:30.388Z,49.01
2022-08-16T10:05:18.008Z,100.00
2022-08-16T10:06:17.981Z,48.91
2022-08-16T10:07:17.966Z,49.21
2022-08-16T10:08:25.503Z,48.81
2022-08-16T10:09:17.952Z,48.11
2022-08-16T10:10:18.856Z,47.62
2022-08-16T10:11:24.644Z,47.92
2022-08-16T10:12:19.717Z,47.89
2022-08-16T10:13:17.898Z,47.80
2022-08-16T10:14:19.909Z,100.00
2022-08-16T10:15:17.905Z,46.90
2022-08-16T10:16:17.904Z,47.20
2022-08-16T10:17:17.843Z,46.41
2022-08-16T10:18:54.034Z,47.00
2022-08-16T10:19:19.398Z,47.70
2022-08-16T10:20:18.487Z,47.40
2022-08-16T10:21:17.781Z,47.30
2022-08-16T10:22:17.775Z,47.80
2022-08-16T10:23:17.872Z,47.50
2022-08-16T10:24:28.661Z,47.50
2022-08-16T10:27:16.548Z,47.40
2022-08-16T10:27:29.882Z,47.80
2022-08-16T10:27:57.043Z,47.80
2022-08-16T10:28:39.941Z,47.30
2022-08-16T10:30:00.756Z,100.00
2022-08-16T10:30:36.910Z,46.38
2022-08-16T10:31:45.485Z,46.58
2022-08-16T10:32:36.397Z,46.38
2022-08-16T10:33:40.248Z,100.00
2022-08-16T10:34:36.360Z,45.86
2022-08-16T10:35:36.334Z,45.86
2022-08-16T10:36:38.161Z,45.76
2022-08-16T10:37:36.691Z,45.37
2022-08-16T10:38:36.763Z,45.67
2022-08-16T10:39:41.643Z,45.96
2022-08-16T10:40:36.312Z,100.00
2022-08-16T10:41:36.340Z,45.89
2022-08-16T10:42:36.241Z,46.08
2022-08-16T10:43:36.223Z,46.19
2022-08-16T10:44:36.241Z,46.38
2022-08-16T10:45:37.094Z,46.48
2022-08-16T10:46:41.649Z,46.78
2022-08-16T10:47:46.669Z,46.48
2022-08-16T10:48:36.164Z,46.28
2022-08-16T10:49:36.140Z,46.19
2022-08-16T10:50:36.137Z,45.89
2022-08-16T10:52:00.867Z,45.89
2022-08-16T10:53:36.095Z,44.97
2022-08-16T10:54:58.674Z,45.07
2022-08-16T10:55:40.821Z,44.67
2022-08-16T10:56:52.435Z,44.77
2022-08-16T10:57:36.094Z,44.87
2022-08-16T10:58:36.020Z,44.87
2022-08-16T10:59:43.943Z,100.00
2022-08-16T11:00:36.019Z,45.17
2022-08-16T11:01:43.773Z,45.37
2022-08-16T11:02:59.982Z,45.56
2022-08-16T11:03:44.586Z,45.67
2022-08-16T11:06:35.978Z,45.07
2022-08-16T11:07:45.538Z,45.07
2022-08-16T11:08:39.715Z,100.00
2022-08-16T11:09:43.722Z,45.17
2022-08-16T11:11:36.145Z,45.27
2022-08-16T11:12:35.861Z,45.07
2022-08-16T11:14:35.824Z,45.07
2022-08-16T11:15:35.795Z,45.27
2022-08-16T11:17:35.774Z,45.39
2022-08-16T11:18:48.503Z,45.29
2022-08-16T11:20:00.733Z,100.00
2022-08-16T11:20:42.201Z,44.99
2022-08-16T11:21:35.726Z,44.79
2022-08-16T11:22:42.149Z,44.70
2022-08-16T11:23:35.695Z,44.70
2022-08-16T11:24:42.510Z,44.49
2022-08-16T11:26:35.657Z,45.09
2022-08-16T11:27:36.287Z,45.09
2022-08-16T11:29:12.220Z,45.19
2022-08-16T11:29:35.623Z,45.59
2022-08-16T11:30:39.308Z,45.59
2022-08-16T11:31:35.576Z,45.29
2022-08-16T11:32:35.566Z,100.00
2022-08-16T11:35:03.806Z,44.89
2022-08-16T11:36:35.517Z,44.70
2022-08-16T11:38:05.952Z,44.67
2022-08-16T11:38:57.852Z,43.56
2022-08-16T11:39:35.504Z,43.96
2022-08-16T11:40:36.296Z,42.85
2022-08-16T11:41:35.447Z,100.00
2022-08-16T11:42:37.569Z,42.05
2022-08-16T11:43:35.434Z,41.95
2022-08-16T11:44:45.368Z,41.75
2022-08-16T11:45:35.406Z,41.33
2022-08-16T11:46:45.652Z,41.63
2022-08-16T11:47:35.378Z,100.00
2022-08-16T11:48:35.383Z,41.93
2022-08-16T11:49:35.341Z,100.00
2022-08-16T11:50:35.333Z,41.63
2022-08-16T11:51:35.318Z,40.82
2022-08-16T11:52:35.316Z,40.42
2022-08-16T11:53:36.090Z,41.41
2022-08-16T11:54:36.727Z,40.12
2022-08-16T11:55:35.278Z,39.71
2022-08-16T11:56:51.412Z,38.92
2022-08-16T11:57:35.248Z,39.81
2022-08-16T11:58:35.244Z,39.02
2022-08-16T11:59:35.218Z,38.92
2022-08-16T12:00:50.367Z,39.12
2022-08-16T12:01:55.453Z,39.31
2022-08-16T12:02:35.177Z,39.31
2022-08-16T12:03:35.791Z,39.22
2022-08-16T12:04:35.233Z,39.81
2022-08-16T12:05:35.148Z,100.00
2022-08-16T12:06:35.130Z,40.41
2022-08-16T12:07:35.112Z,40.20
2022-08-16T12:08:35.095Z,40.50
2022-08-16T12:09:35.079Z,40.41
2022-08-16T12:10:35.085Z,40.31
2022-08-16T12:11:35.056Z,40.60
2022-08-16T12:12:35.043Z,39.14
2022-08-16T12:13:35.031Z,39.42
2022-08-16T12:14:36.585Z,39.81
2022-08-16T12:15:35.014Z,39.31
2022-08-16T12:16:35.018Z,40.50
2022-08-16T12:17:34.995Z,38.62
2022-08-16T12:18:35.022Z,40.50
2022-08-16T12:19:35.825Z,39.71
2022-08-16T12:20:34.935Z,41.10
2022-08-16T12:21:57.701Z,41.69
2022-08-16T12:22:36.718Z,41.89
2022-08-16T12:23:34.900Z,38.92
2022-08-16T12:24:34.887Z,38.42
2022-08-16T12:25:34.920Z,39.22
2022-08-16T12:26:34.871Z,38.31
2022-08-16T12:27:34.850Z,38.31
2022-08-16T12:28:53.977Z,38.51
2022-08-16T12:29:34.851Z,38.70
2022-08-16T12:30:38.474Z,37.99
2022-08-16T12:31:34.796Z,36.01
2022-08-16T12:32:39.434Z,35.22
2022-08-16T12:33:44.691Z,34.71
2022-08-16T12:34:34.773Z,34.61
2022-08-16T12:35:34.756Z,34.71
2022-08-16T12:36:34.744Z,35.11
2022-08-16T12:37:34.867Z,36.10
2022-08-16T12:38:41.130Z,34.91
2022-08-16T12:39:34.772Z,35.50
2022-08-16T12:40:34.716Z,35.49
2022-08-16T12:41:34.873Z,35.88
2022-08-16T12:42:35.793Z,100.00
2022-08-16T12:43:34.650Z,34.99
2022-08-16T12:44:34.626Z,35.78
2022-08-16T12:45:34.625Z,36.27
2022-08-16T12:46:34.612Z,35.78
2022-08-16T12:47:34.591Z,35.09
2022-08-16T12:48:35.372Z,34.78
2022-08-16T12:49:41.695Z,34.78
2022-08-16T12:50:34.551Z,100.00
2022-08-16T12:51:58.902Z,34.97
2022-08-16T12:52:36.793Z,100.00
2022-08-16T12:53:34.527Z,35.57
2022-08-16T12:54:34.504Z,35.47
2022-08-16T12:55:41.895Z,100.00
2022-08-16T12:56:34.476Z,100.00
2022-08-16T12:57:36.679Z,35.57
2022-08-16T12:58:48.484Z,34.46
2022-08-16T12:59:34.446Z,34.86
2022-08-16T13:00:34.569Z,34.25